createdAt,value
2023-07-20T00:00:10.895Z,18.90
2023-07-20T00:02:38.233Z,18.90
2023-07-20T00:05:05.701Z,18.90
2023-07-20T00:07:32.790Z,18.90
2023-07-20T00:09:59.816Z,18.90
2023-07-20T00:12:26.864Z,18.90
2023-07-20T00:14:55.127Z,18.90
2023-07-20T00:17:22.366Z,18.90
2023-07-20T00:19:49.637Z,18.90
2023-07-20T00:22:19.965Z,18.90
2023-07-20T00:24:47.128Z,18.90
2023-07-20T00:27:14.225Z,19.00
2023-07-20T00:29:41.490Z,19.00
2023-07-20T00:32:13.602Z,19.00
2023-07-20T00:34:40.623Z,19.00
2023-07-20T00:37:08.053Z,19.00
2023-07-20T00:39:35.151Z,19.00
2023-07-20T00:42:02.384Z,19.00
2023-07-20T00:44:29.437Z,19.10
2023-07-20T00:46:56.705Z,19.00
2023-07-20T00:49:25.342Z,19.10
2023-07-20T00:51:52.595Z,19.10
2023-07-20T00:54:19.772Z,19.00
2023-07-20T00:56:46.921Z,19.00
2023-07-20T00:59:14.478Z,19.00
2023-07-20T01:01:41.623Z,19.10
2023-07-20T01:04:08.900Z,19.10
2023-07-20T01:06:50.226Z,19.00
2023-07-20T01:09:21.294Z,19.10
2023-07-20T01:12:14.587Z,19.10
2023-07-20T01:14:41.579Z,19.10
2023-07-20T01:17:08.635Z,19.10
2023-07-20T01:19:35.709Z,19.10
2023-07-20T01:22:03.275Z,19.10
2023-07-20T01:24:50.909Z,19.10
2023-07-20T01:27:30.055Z,19.10
2023-07-20T01:30:15.971Z,19.10
2023-07-20T01:32:44.308Z,19.10
2023-07-20T01:35:12.545Z,19.10
2023-07-20T01:37:39.790Z,19.00
2023-07-20T01:40:07.347Z,19.00
2023-07-20T01:42:34.519Z,19.00
2023-07-20T01:45:01.540Z,19.00
2023-07-20T01:47:28.834Z,18.90
2023-07-20T01:49:56.271Z,18.90
2023-07-20T01:52:23.325Z,18.90
2023-07-20T01:54:50.370Z,18.90
2023-07-20T01:57:28.331Z,18.80
2023-07-20T01:59:55.852Z,18.70
2023-07-20T02:02:24.325Z,18.70
2023-07-20T02:04:51.460Z,18.70
2023-07-20T02:07:18.769Z,18.60
2023-07-20T02:09:45.864Z,18.60
2023-07-20T02:12:12.901Z,18.60
2023-07-20T02:14:40.511Z,18.60
2023-07-20T02:17:07.572Z,18.50
2023-07-20T02:19:34.555Z,18.50
2023-07-20T02:22:01.717Z,18.40
2023-07-20T02:24:28.744Z,18.40
2023-07-20T02:26:55.799Z,18.40
2023-07-20T02:29:22.792Z,18.30
2023-07-20T02:31:49.845Z,18.30
2023-07-20T02:34:16.888Z,18.20
2023-07-20T02:36:44.036Z,18.20
2023-07-20T02:39:11.793Z,18.20
2023-07-20T02:41:38.933Z,18.10
2023-07-20T02:44:06.051Z,18.10
2023-07-20T02:46:33.062Z,18.10
2023-07-20T02:49:00.202Z,18.00
2023-07-20T02:51:27.289Z,18.00
2023-07-20T02:53:54.363Z,18.00
2023-07-20T02:56:21.758Z,18.00
2023-07-20T02:58:48.990Z,17.90
2023-07-20T03:01:17.218Z,17.90
2023-07-20T03:03:48.271Z,17.80
2023-07-20T03:06:16.085Z,17.80
2023-07-20T03:08:48.681Z,17.80
2023-07-20T03:11:16.516Z,17.70
2023-07-20T03:13:44.064Z,17.70
2023-07-20T03:16:12.711Z,17.60
2023-07-20T03:18:40.060Z,17.60
2023-07-20T03:21:12.706Z,17.50
2023-07-20T03:23:40.588Z,17.50
2023-07-20T03:26:09.750Z,17.50
2023-07-20T03:28:37.261Z,17.50
2023-07-20T03:31:04.343Z,17.50
2023-07-20T03:33:32.020Z,17.30
2023-07-20T03:35:59.776Z,17.40
2023-07-20T03:38:27.815Z,17.20
2023-07-20T03:40:55.920Z,17.20
2023-07-20T03:43:23.477Z,17.10
2023-07-20T03:45:51.306Z,17.10
2023-07-20T03:48:18.908Z,17.10
2023-07-20T03:50:46.958Z,17.10
2023-07-20T03:53:14.219Z,17.10
2023-07-20T03:55:41.996Z,17.20
2023-07-20T03:58:09.743Z,17.10
2023-07-20T04:00:36.796Z,17.10
2023-07-20T04:03:04.009Z,17.00
2023-07-20T04:05:31.108Z,16.90
2023-07-20T04:07:58.302Z,17.00
2023-07-20T04:10:25.397Z,17.00
2023-07-20T04:12:52.536Z,17.00
2023-07-20T04:15:19.698Z,17.00
2023-07-20T04:17:47.233Z,17.00
2023-07-20T04:20:14.361Z,17.10
2023-07-20T04:22:41.545Z,17.00
2023-07-20T04:25:09.526Z,17.00
2023-07-20T04:27:36.804Z,17.00
2023-07-20T04:30:05.029Z,17.10
2023-07-20T04:32:35.261Z,17.10
2023-07-20T04:35:07.602Z,17.20
2023-07-20T04:37:34.791Z,17.10
2023-07-20T04:40:02.053Z,17.00
2023-07-20T04:42:29.289Z,16.90
2023-07-20T04:44:56.250Z,16.80
2023-07-20T04:47:23.349Z,16.80
2023-07-20T04:49:50.429Z,16.90
2023-07-20T04:52:18.129Z,16.90
2023-07-20T04:54:45.308Z,16.80
2023-07-20T04:57:13.177Z,16.80
2023-07-20T04:59:41.381Z,16.80
2023-07-20T05:02:08.574Z,16.80
2023-07-20T05:04:39.036Z,16.80
2023-07-20T05:07:07.219Z,16.90
2023-07-20T05:09:34.752Z,17.10
2023-07-20T05:12:01.766Z,17.10
2023-07-20T05:14:28.797Z,17.20
2023-07-20T05:16:55.912Z,17.30
2023-07-20T05:19:23.028Z,17.40
2023-07-20T05:21:50.427Z,17.40
2023-07-20T05:24:17.478Z,17.50
2023-07-20T05:26:44.531Z,17.50
2023-07-20T05:29:11.559Z,17.60
2023-07-20T05:31:38.811Z,17.70
2023-07-20T05:34:05.958Z,17.70
2023-07-20T05:36:33.027Z,17.80
2023-07-20T05:39:00.090Z,17.80
2023-07-20T05:41:27.212Z,17.80
2023-07-20T05:43:54.352Z,17.90
2023-07-20T05:46:21.790Z,17.90
2023-07-20T05:48:49.366Z,18.00
2023-07-20T05:51:16.956Z,18.00
2023-07-20T05:53:43.907Z,18.10
2023-07-20T05:56:11.758Z,18.00
2023-07-20T05:58:38.817Z,18.00
2023-07-20T06:01:07.689Z,18.00
2023-07-20T06:03:38.650Z,18.00
2023-07-20T06:06:06.820Z,18.10
2023-07-20T06:08:33.921Z,18.10
2023-07-20T06:11:01.081Z,18.20
2023-07-20T06:13:28.118Z,18.20
2023-07-20T06:15:55.351Z,18.30
2023-07-20T06:18:24.001Z,18.30
2023-07-20T06:20:53.860Z,18.40
2023-07-20T06:23:21.054Z,18.50
2023-07-20T06:25:48.005Z,18.50
2023-07-20T06:28:15.051Z,18.50
2023-07-20T06:30:42.256Z,18.50
2023-07-20T06:33:09.387Z,18.60
2023-07-20T06:35:39.146Z,18.60
2023-07-20T06:40:37.541Z,18.70
2023-07-20T06:45:34.995Z,19.00
2023-07-20T06:48:02.306Z,19.00
2023-07-20T06:50:29.383Z,19.10
2023-07-20T06:52:58.960Z,19.20
2023-07-20T06:55:26.347Z,19.30
2023-07-20T07:00:25.822Z,19.30
2023-07-20T07:02:53.168Z,19.40
2023-07-20T07:05:21.619Z,19.40
2023-07-20T07:07:49.108Z,19.40
2023-07-20T07:10:16.222Z,19.40
2023-07-20T07:12:43.272Z,19.40
2023-07-20T07:15:12.184Z,19.40
2023-07-20T07:17:39.932Z,19.40
2023-07-20T07:20:11.155Z,19.50
2023-07-20T07:22:38.668Z,19.60
2023-07-20T07:25:06.172Z,19.60
2023-07-20T07:27:33.240Z,19.70
2023-07-20T07:30:00.267Z,19.70
2023-07-20T07:32:27.867Z,19.70
2023-07-20T07:34:55.092Z,19.90
2023-07-20T07:37:22.256Z,20.10
2023-07-20T07:39:49.289Z,20.30
2023-07-20T07:42:16.641Z,20.40
2023-07-20T07:44:43.905Z,20.50
2023-07-20T07:47:11.478Z,20.60
2023-07-20T07:49:41.283Z,20.60
2023-07-20T07:52:08.509Z,20.60
2023-07-20T07:54:35.880Z,20.60
2023-07-20T07:57:03.043Z,20.60
2023-07-20T07:59:31.291Z,20.70
2023-07-20T08:01:59.957Z,20.80
2023-07-20T08:04:27.008Z,20.90
2023-07-20T08:06:54.082Z,21.00
2023-07-20T08:09:21.328Z,21.10
2023-07-20T08:11:49.717Z,21.20
2023-07-20T08:14:17.070Z,21.30
2023-07-20T08:16:44.704Z,21.40
2023-07-20T08:19:12.165Z,21.40
2023-07-20T08:21:39.431Z,21.50
2023-07-20T08:24:06.710Z,21.60
2023-07-20T08:26:33.972Z,21.70
2023-07-20T08:29:01.079Z,21.80
2023-07-20T08:31:29.551Z,21.90
2023-07-20T08:33:58.350Z,22.10
2023-07-20T08:36:25.973Z,22.10
2023-07-20T08:38:53.465Z,22.20
2023-07-20T08:41:20.619Z,22.10
2023-07-20T08:43:48.257Z,22.00
2023-07-20T08:46:16.700Z,22.10
2023-07-20T08:48:44.633Z,22.10
2023-07-20T08:51:12.500Z,22.10
2023-07-20T08:53:40.350Z,22.10
2023-07-20T08:56:08.198Z,22.20
2023-07-20T08:58:36.577Z,22.40
2023-07-20T09:01:04.070Z,22.40
2023-07-20T09:03:31.347Z,22.50
2023-07-20T09:05:59.361Z,22.40
2023-07-20T09:08:26.512Z,22.40
2023-07-20T09:10:53.572Z,22.40
2023-07-20T09:13:21.765Z,22.50
2023-07-20T09:15:50.235Z,22.50
2023-07-20T09:18:31.113Z,22.60
2023-07-20T09:21:05.757Z,22.60
2023-07-20T09:23:36.469Z,22.50
2023-07-20T09:26:11.232Z,22.40
2023-07-20T09:28:48.011Z,22.50
2023-07-20T09:31:19.443Z,22.60
2023-07-20T09:36:57.525Z,22.70
2023-07-20T09:39:06.631Z,22.90
2023-07-20T09:41:45.524Z,23.10
2023-07-20T09:51:54.601Z,23.70
2023-07-20T09:54:23.226Z,23.80
2023-07-20T09:56:52.159Z,23.80
2023-07-20T09:59:19.630Z,23.80
2023-07-20T10:01:47.678Z,23.50
2023-07-20T10:04:15.651Z,23.40
2023-07-20T10:06:43.786Z,23.40
2023-07-20T10:09:11.887Z,23.50
2023-07-20T10:11:43.198Z,23.60
2023-07-20T10:14:13.561Z,23.60
2023-07-20T10:16:50.063Z,23.60
2023-07-20T10:19:18.760Z,23.60
2023-07-20T10:21:51.392Z,23.60
2023-07-20T10:24:23.269Z,23.60
2023-07-20T10:26:50.579Z,23.60
2023-07-20T10:29:18.061Z,23.50
2023-07-20T10:31:45.563Z,23.40
2023-07-20T10:34:14.195Z,23.40
2023-07-20T10:36:53.574Z,23.40
2023-07-20T10:39:29.174Z,23.50
2023-07-20T10:42:09.175Z,23.60
2023-07-20T10:44:38.745Z,23.70
2023-07-20T10:47:14.709Z,23.80
2023-07-20T10:50:02.017Z,23.90
2023-07-20T10:52:38.385Z,24.00
2023-07-20T10:55:18.120Z,24.00
2023-07-20T10:58:05.259Z,24.10
2023-07-20T11:00:32.391Z,24.10
2023-07-20T11:03:00.806Z,24.10
2023-07-20T11:05:36.150Z,24.10
2023-07-20T11:08:07.590Z,24.10
2023-07-20T11:10:34.690Z,24.10
2023-07-20T11:13:20.908Z,24.20
2023-07-20T11:15:48.945Z,24.20
2023-07-20T11:18:16.124Z,24.30
2023-07-20T11:20:43.492Z,24.30
2023-07-20T11:23:10.639Z,24.30
2023-07-20T11:25:41.809Z,24.30
2023-07-20T11:28:10.268Z,24.40
2023-07-20T11:30:39.184Z,24.50
2023-07-20T11:33:07.229Z,24.50
2023-07-20T11:35:49.827Z,24.70
2023-07-20T11:38:16.968Z,24.80
2023-07-20T11:40:47.182Z,24.90
2023-07-20T11:45:45.380Z,25.10
2023-07-20T11:48:18.571Z,25.00
2023-07-20T11:50:46.151Z,25.00
2023-07-20T11:53:13.569Z,25.10
2023-07-20T11:55:42.202Z,25.30
2023-07-20T11:58:10.450Z,25.40
2023-07-20T12:00:40.210Z,25.50
2023-07-20T12:03:11.541Z,25.60
2023-07-20T12:08:12.275Z,25.60
2023-07-20T12:10:44.561Z,25.50
2023-07-20T12:13:13.014Z,25.50
2023-07-20T12:15:40.043Z,25.70
2023-07-20T12:18:07.367Z,25.80
2023-07-20T12:20:36.440Z,26.00
2023-07-20T12:23:07.029Z,26.30
2023-07-20T12:25:43.994Z,26.40
2023-07-20T12:28:12.205Z,26.40
2023-07-20T12:30:40.063Z,26.40
2023-07-20T12:33:07.384Z,26.40
2023-07-20T12:35:34.986Z,26.50
2023-07-20T12:38:02.728Z,26.50
2023-07-20T12:40:29.970Z,26.60
2023-07-20T12:42:57.197Z,26.60
2023-07-20T12:45:24.278Z,26.50
2023-07-20T12:47:51.393Z,26.50
2023-07-20T12:50:18.716Z,26.40
2023-07-20T12:52:46.360Z,26.40
2023-07-20T12:55:13.414Z,26.30
2023-07-20T12:57:41.825Z,26.30
2023-07-20T13:00:10.655Z,26.20
2023-07-20T13:02:37.975Z,26.10
2023-07-20T13:05:05.359Z,26.00
2023-07-20T13:10:04.180Z,25.60
2023-07-20T13:12:32.851Z,25.70
2023-07-20T13:15:07.244Z,25.50
2023-07-20T13:17:38.130Z,25.30
2023-07-20T13:20:06.012Z,25.30
2023-07-20T13:22:33.363Z,25.30
2023-07-20T13:25:00.485Z,25.20
2023-07-20T13:27:27.778Z,25.20
2023-07-20T13:29:55.011Z,25.10
2023-07-20T13:32:22.333Z,25.10
2023-07-20T13:34:50.065Z,25.10
2023-07-20T13:37:17.613Z,25.10
2023-07-20T13:39:45.262Z,25.00
2023-07-20T13:42:14.136Z,25.00
2023-07-20T13:44:42.778Z,24.80
2023-07-20T13:49:47.783Z,24.70
2023-07-20T13:57:16.665Z,24.50
2023-07-20T13:59:44.600Z,24.40
2023-07-20T14:04:42.864Z,24.30
2023-07-20T14:07:10.724Z,24.20
2023-07-20T14:10:20.281Z,24.20
2023-07-20T14:12:25.171Z,24.20
2023-07-20T14:14:52.162Z,24.20
2023-07-20T14:17:19.827Z,24.10
2023-07-20T14:19:47.106Z,24.10
2023-07-20T14:22:14.293Z,24.00
2023-07-20T14:24:41.345Z,23.90
2023-07-20T14:27:08.497Z,23.90
2023-07-20T14:29:37.778Z,23.90
2023-07-20T14:32:05.460Z,23.80
2023-07-20T14:34:33.854Z,23.80
2023-07-20T14:37:03.235Z,23.80
2023-07-20T14:39:30.279Z,23.70
2023-07-20T14:41:57.434Z,23.70
2023-07-20T14:44:24.846Z,23.60
2023-07-20T14:47:06.521Z,23.60
2023-07-20T14:49:39.763Z,23.60
2023-07-20T14:52:15.674Z,23.50
2023-07-20T14:54:43.280Z,23.50
2023-07-20T14:57:15.893Z,23.50
2023-07-20T14:59:43.742Z,23.50
2023-07-20T15:02:11.102Z,23.40
2023-07-20T15:04:38.506Z,23.40
2023-07-20T15:07:05.988Z,23.40
2023-07-20T15:09:33.268Z,23.50
2023-07-20T15:12:00.306Z,23.50
2023-07-20T15:14:27.318Z,23.50
2023-07-20T15:16:54.768Z,23.50
2023-07-20T15:19:23.594Z,23.50
2023-07-20T15:21:50.834Z,23.60
2023-07-20T15:24:18.104Z,23.60
2023-07-20T15:26:45.505Z,23.50
2023-07-20T15:29:35.958Z,23.50
2023-07-20T15:32:00.937Z,23.60
2023-07-20T15:34:28.776Z,23.60
2023-07-20T15:36:56.020Z,23.60
2023-07-20T15:39:23.022Z,23.60
2023-07-20T15:41:50.060Z,23.60
2023-07-20T15:44:17.052Z,23.70
2023-07-20T15:46:44.151Z,23.80
2023-07-20T15:49:11.802Z,23.80
2023-07-20T15:51:39.678Z,23.80
2023-07-20T15:54:11.877Z,23.80
2023-07-20T15:56:39.757Z,23.80
2023-07-20T15:59:07.376Z,23.80
2023-07-20T16:01:34.722Z,23.80
2023-07-20T16:04:01.832Z,23.80
2023-07-20T16:06:29.657Z,23.80
2023-07-20T16:08:57.316Z,23.70
2023-07-20T16:11:26.937Z,23.60
2023-07-20T16:13:54.686Z,23.60
2023-07-20T16:16:21.938Z,23.50
2023-07-20T16:18:52.677Z,23.50
2023-07-20T16:21:19.713Z,23.40
2023-07-20T16:23:46.806Z,23.30
2023-07-20T16:26:13.920Z,23.30
2023-07-20T16:28:42.450Z,23.40
2023-07-20T16:31:13.097Z,23.30
2023-07-20T16:36:13.117Z,23.00
2023-07-20T16:38:44.091Z,22.80
2023-07-20T16:41:12.070Z,22.60
2023-07-20T16:51:11.592Z,22.00
2023-07-20T16:53:38.691Z,21.90
2023-07-20T16:56:06.024Z,21.90
2023-07-20T16:58:33.107Z,21.90
2023-07-20T17:01:03.987Z,21.90
2023-07-20T17:03:31.290Z,21.70
2023-07-20T17:05:58.663Z,21.60
2023-07-20T17:08:25.848Z,21.50
2023-07-20T17:10:53.877Z,21.50
2023-07-20T17:13:21.118Z,21.40
2023-07-20T17:15:49.048Z,21.30
2023-07-20T17:18:16.836Z,21.20
2023-07-20T17:23:17.558Z,21.00
2023-07-20T17:30:58.746Z,21.00
2023-07-20T17:33:25.872Z,20.90
2023-07-20T17:35:53.073Z,20.90
2023-07-20T17:40:52.028Z,20.90
2023-07-20T17:43:19.313Z,20.80
2023-07-20T17:45:50.680Z,20.80
2023-07-20T17:48:19.096Z,20.80
2023-07-20T17:50:46.532Z,20.80
2023-07-20T17:53:13.612Z,20.80
2023-07-20T17:55:41.839Z,20.80
2023-07-20T17:58:08.973Z,20.90
2023-07-20T18:00:39.104Z,20.80
2023-07-20T18:03:06.865Z,20.80
2023-07-20T18:05:33.994Z,20.80
2023-07-20T18:08:01.323Z,20.80
2023-07-20T18:10:28.410Z,20.80
2023-07-20T18:12:55.452Z,20.80
2023-07-20T18:15:22.735Z,20.80
2023-07-20T18:17:49.858Z,20.80
2023-07-20T18:20:17.156Z,20.80
2023-07-20T18:22:44.290Z,20.80
2023-07-20T18:25:11.498Z,20.80
2023-07-20T18:27:39.167Z,20.90
2023-07-20T18:30:06.893Z,21.00
2023-07-20T18:32:34.138Z,21.00
2023-07-20T18:35:01.664Z,21.10
2023-07-20T18:37:28.714Z,21.10
2023-07-20T18:39:55.974Z,21.20
2023-07-20T18:42:23.334Z,21.20
2023-07-20T18:44:50.645Z,21.20
2023-07-20T18:47:17.701Z,21.10
2023-07-20T18:49:44.704Z,21.10
2023-07-20T18:52:11.793Z,21.10
2023-07-20T18:54:38.864Z,21.10
2023-07-20T18:57:06.097Z,21.00
2023-07-20T18:59:34.723Z,21.00
2023-07-20T19:02:02.163Z,21.00
2023-07-20T19:04:29.307Z,20.90
2023-07-20T19:06:56.388Z,20.90
2023-07-20T19:09:23.434Z,21.00
2023-07-20T19:14:21.121Z,21.00
2023-07-20T19:16:48.158Z,21.00
2023-07-20T19:19:16.340Z,21.00
2023-07-20T19:21:43.312Z,21.10
2023-07-20T19:24:10.588Z,21.00
2023-07-20T19:26:37.658Z,20.90
2023-07-20T19:29:04.741Z,20.90
2023-07-20T19:31:31.837Z,20.80
2023-07-20T19:33:59.049Z,20.70
2023-07-20T19:36:26.672Z,20.60
2023-07-20T19:38:53.897Z,20.60
2023-07-20T19:41:20.951Z,20.50
2023-07-20T19:43:48.143Z,20.40
2023-07-20T19:46:15.338Z,20.30
2023-07-20T19:48:42.859Z,20.30
2023-07-20T19:51:11.077Z,20.20
2023-07-20T19:53:38.343Z,20.00
2023-07-20T19:56:09.256Z,19.80
2023-07-20T19:58:37.173Z,19.60
2023-07-20T20:06:07.869Z,19.50
2023-07-20T20:08:35.015Z,19.50
2023-07-20T20:13:32.756Z,19.20
2023-07-20T20:16:00.280Z,19.00
2023-07-20T20:18:29.804Z,18.80
2023-07-20T20:21:00.731Z,18.80
2023-07-20T20:23:28.071Z,18.80
2023-07-20T20:25:58.867Z,18.80
2023-07-20T20:28:26.199Z,18.80
2023-07-20T20:30:54.334Z,18.90
2023-07-20T20:33:25.307Z,19.00
2023-07-20T20:35:53.425Z,19.00
2023-07-20T20:38:21.511Z,19.00
2023-07-20T20:40:49.618Z,18.90
2023-07-20T20:45:52.482Z,19.00
2023-07-20T20:48:19.528Z,19.10
2023-07-20T20:50:46.569Z,19.10
2023-07-20T20:53:14.206Z,19.00
2023-07-20T20:55:41.492Z,19.00
2023-07-20T20:58:10.364Z,19.00
2023-07-20T21:00:37.462Z,19.00
2023-07-20T21:03:04.556Z,19.00
2023-07-20T21:05:35.983Z,18.90
2023-07-20T21:08:05.969Z,18.90
2023-07-20T21:10:36.306Z,18.90
2023-07-20T21:13:05.625Z,18.90
2023-07-20T21:15:33.607Z,18.60
2023-07-20T21:18:00.848Z,18.30
2023-07-20T21:20:28.049Z,18.30
2023-07-20T21:22:55.322Z,18.40
2023-07-20T21:25:22.508Z,18.40
2023-07-20T21:27:49.683Z,18.40
2023-07-20T21:44:06.919Z,18.40
2023-07-20T21:46:35.135Z,18.30
2023-07-20T21:49:04.102Z,18.20
2023-07-20T21:51:33.236Z,18.20
2023-07-20T21:54:01.344Z,18.20
2023-07-20T21:56:28.536Z,18.10
2023-07-20T21:58:55.585Z,18.00
2023-07-20T22:01:48.330Z,18.00
2023-07-20T22:04:10.356Z,18.00
2023-07-20T22:06:38.164Z,17.90
2023-07-20T22:09:05.890Z,17.90
2023-07-20T22:11:34.788Z,17.80
2023-07-20T22:14:01.970Z,17.80
2023-07-20T22:16:29.376Z,17.80
2023-07-20T22:18:56.492Z,17.80
2023-07-20T22:21:23.514Z,17.70
2023-07-20T22:23:51.192Z,17.70
2023-07-20T22:26:21.979Z,17.70
2023-07-20T22:28:48.987Z,17.60
2023-07-20T22:31:16.216Z,17.60
2023-07-20T22:33:43.460Z,17.60
2023-07-20T22:36:10.606Z,17.50
2023-07-20T22:38:37.663Z,17.50
2023-07-20T22:41:04.702Z,17.40
2023-07-20T22:43:31.880Z,17.40
2023-07-20T22:45:59.035Z,17.40
2023-07-20T22:48:29.055Z,17.30
2023-07-20T22:51:00.084Z,17.30
2023-07-20T22:53:30.813Z,17.30
2023-07-20T22:55:58.578Z,17.30
2023-07-20T22:58:25.855Z,17.30
2023-07-20T23:00:52.963Z,17.20
2023-07-20T23:03:20.301Z,17.00
2023-07-20T23:05:48.414Z,16.90
2023-07-20T23:08:15.542Z,16.90
2023-07-20T23:10:43.053Z,16.90
2023-07-20T23:13:10.674Z,16.90
2023-07-20T23:15:39.914Z,16.90
2023-07-20T23:18:07.373Z,16.80
2023-07-20T23:20:34.457Z,16.70
2023-07-20T23:23:02.014Z,16.70
2023-07-20T23:25:29.611Z,16.60
2023-07-20T23:28:00.127Z,16.60
2023-07-20T23:30:29.016Z,16.70
2023-07-20T23:32:56.244Z,16.70
2023-07-20T23:35:23.429Z,16.70
2023-07-20T23:37:51.924Z,16.70
2023-07-20T23:40:20.065Z,16.70
2023-07-20T23:42:47.548Z,16.70
2023-07-20T23:45:15.735Z,16.70
2023-07-20T23:47:43.966Z,16.70
2023-07-20T23:50:11.611Z,16.50
2023-07-20T23:52:38.779Z,16.50
2023-07-20T23:55:07.902Z,16.50
2023-07-20T23:57:35.408Z,16.50
